sensor_id;sensor_type;location;lat;lon;timestamp;temperature;humidity
12907;DHT22;6521;50.498;8.474;2023-06-05T00:00:38;12.83;58.49
12907;DHT22;6521;50.498;8.474;2023-06-05T00:03:09;12.79;58.48
12907;DHT22;6521;50.498;8.474;2023-06-05T00:05:39;12.76;58.76
12907;DHT22;6521;50.498;8.474;2023-06-05T00:08:10;12.71;58.72
12907;DHT22;6521;50.498;8.474;2023-06-05T00:10:41;12.68;58.32
12907;DHT22;6521;50.498;8.474;2023-06-05T00:13:11;12.64;58.27
12907;DHT22;6521;50.498;8.474;2023-06-05T00:15:42;12.58;58.58
12907;DHT22;6521;50.498;8.474;2023-06-05T00:18:13;12.54;59.00
12907;DHT22;6521;50.498;8.474;2023-06-05T00:20:45;12.52;58.83
12907;DHT22;6521;50.498;8.474;2023-06-05T00:23:15;12.48;58.95
12907;DHT22;6521;50.498;8.474;2023-06-05T00:25:46;12.41;59.06
12907;DHT22;6521;50.498;8.474;2023-06-05T00:28:17;12.38;59.13
12907;DHT22;6521;50.498;8.474;2023-06-05T00:30:48;12.34;59.36
12907;DHT22;6521;50.498;8.474;2023-06-05T00:33:18;12.30;58.79
12907;DHT22;6521;50.498;8.474;2023-06-05T00:35:49;12.25;59.38
12907;DHT22;6521;50.498;8.474;2023-06-05T00:38:22;12.23;59.63
12907;DHT22;6521;50.498;8.474;2023-06-05T00:40:52;12.17;60.27
12907;DHT22;6521;50.498;8.474;2023-06-05T00:43:23;12.10;60.04
12907;DHT22;6521;50.498;8.474;2023-06-05T00:46:02;12.07;60.24
12907;DHT22;6521;50.498;8.474;2023-06-05T00:48:34;12.07;60.64
12907;DHT22;6521;50.498;8.474;2023-06-05T00:51:05;12.07;61.00
12907;DHT22;6521;50.498;8.474;2023-06-05T00:53:38;12.03;61.15
12907;DHT22;6521;50.498;8.474;2023-06-05T00:56:09;11.96;61.22
12907;DHT22;6521;50.498;8.474;2023-06-05T00:58:40;11.93;61.22
12907;DHT22;6521;50.498;8.474;2023-06-05T01:01:11;11.91;61.41
12907;DHT22;6521;50.498;8.474;2023-06-05T01:03:42;11.87;61.62
12907;DHT22;6521;50.498;8.474;2023-06-05T01:06:15;11.87;62.04
12907;DHT22;6521;50.498;8.474;2023-06-05T01:08:48;11.83;62.51
12907;DHT22;6521;50.498;8.474;2023-06-05T01:11:24;11.83;62.57
12907;DHT22;6521;50.498;8.474;2023-06-05T01:14:08;11.75;62.40
12907;DHT22;6521;50.498;8.474;2023-06-05T01:16:45;11.75;62.65
12907;DHT22;6521;50.498;8.474;2023-06-05T01:19:17;11.69;62.77
12907;DHT22;6521;50.498;8.474;2023-06-05T01:21:48;11.67;62.87
12907;DHT22;6521;50.498;8.474;2023-06-05T01:24:21;11.63;62.83
12907;DHT22;6521;50.498;8.474;2023-06-05T01:26:57;11.59;62.67
12907;DHT22;6521;50.498;8.474;2023-06-05T01:35:26;11.46;62.83
12907;DHT22;6521;50.498;8.474;2023-06-05T01:38:05;11.46;63.15
12907;DHT22;6521;50.498;8.474;2023-06-05T01:40:37;11.40;63.17
12907;DHT22;6521;50.498;8.474;2023-06-05T01:43:09;11.42;63.37
12907;DHT22;6521;50.498;8.474;2023-06-05T01:45:40;11.42;63.53
12907;DHT22;6521;50.498;8.474;2023-06-05T01:48:12;11.40;63.58
12907;DHT22;6521;50.498;8.474;2023-06-05T01:50:44;11.39;63.72
12907;DHT22;6521;50.498;8.474;2023-06-05T01:53:16;11.34;63.94
12907;DHT22;6521;50.498;8.474;2023-06-05T01:55:48;11.38;64.07
12907;DHT22;6521;50.498;8.474;2023-06-05T01:58:25;11.32;64.13
12907;DHT22;6521;50.498;8.474;2023-06-05T02:00:56;11.26;64.20
12907;DHT22;6521;50.498;8.474;2023-06-05T02:03:28;11.28;64.60
12907;DHT22;6521;50.498;8.474;2023-06-05T02:05:58;11.26;64.83
12907;DHT22;6521;50.498;8.474;2023-06-05T02:08:29;11.26;64.84
12907;DHT22;6521;50.498;8.474;2023-06-05T02:11:00;11.21;64.78
12907;DHT22;6521;50.498;8.474;2023-06-05T02:13:34;11.22;65.00
12907;DHT22;6521;50.498;8.474;2023-06-05T02:16:05;11.21;64.97
12907;DHT22;6521;50.498;8.474;2023-06-05T02:18:36;11.17;64.93
12907;DHT22;6521;50.498;8.474;2023-06-05T02:21:09;11.14;64.82
12907;DHT22;6521;50.498;8.474;2023-06-05T02:23:40;11.14;64.88
12907;DHT22;6521;50.498;8.474;2023-06-05T02:26:12;11.11;64.84
12907;DHT22;6521;50.498;8.474;2023-06-05T02:28:42;11.12;65.01
12907;DHT22;6521;50.498;8.474;2023-06-05T02:31:13;11.05;65.51
12907;DHT22;6521;50.498;8.474;2023-06-05T02:33:46;11.00;65.75
12907;DHT22;6521;50.498;8.474;2023-06-05T02:36:17;10.97;65.51
12907;DHT22;6521;50.498;8.474;2023-06-05T02:38:49;10.87;65.38
12907;DHT22;6521;50.498;8.474;2023-06-05T02:41:20;10.85;65.23
12907;DHT22;6521;50.498;8.474;2023-06-05T02:43:53;10.80;64.75
12907;DHT22;6521;50.498;8.474;2023-06-05T02:46:25;10.77;64.86
12907;DHT22;6521;50.498;8.474;2023-06-05T02:48:57;10.76;64.73
12907;DHT22;6521;50.498;8.474;2023-06-05T02:51:27;10.76;64.84
12907;DHT22;6521;50.498;8.474;2023-06-05T02:53:58;10.77;64.78
12907;DHT22;6521;50.498;8.474;2023-06-05T02:56:29;10.76;64.45
12907;DHT22;6521;50.498;8.474;2023-06-05T02:59:00;10.76;65.05
12907;DHT22;6521;50.498;8.474;2023-06-05T03:01:35;10.74;65.12
12907;DHT22;6521;50.498;8.474;2023-06-05T03:04:10;10.70;64.62
12907;DHT22;6521;50.498;8.474;2023-06-05T03:06:42;10.71;65.00
12907;DHT22;6521;50.498;8.474;2023-06-05T03:09:14;10.68;65.00
12907;DHT22;6521;50.498;8.474;2023-06-05T03:11:45;10.67;65.29
12907;DHT22;6521;50.498;8.474;2023-06-05T03:14:16;10.61;65.49
12907;DHT22;6521;50.498;8.474;2023-06-05T03:16:47;10.64;65.74
12907;DHT22;6521;50.498;8.474;2023-06-05T03:19:20;10.61;66.28
12907;DHT22;6521;50.498;8.474;2023-06-05T03:21:51;10.60;66.29
12907;DHT22;6521;50.498;8.474;2023-06-05T03:24:24;10.57;66.51
12907;DHT22;6521;50.498;8.474;2023-06-05T03:26:58;10.59;66.71
12907;DHT22;6521;50.498;8.474;2023-06-05T03:29:29;10.53;66.75
12907;DHT22;6521;50.498;8.474;2023-06-05T03:32:00;10.53;66.82
12907;DHT22;6521;50.498;8.474;2023-06-05T03:34:31;10.55;67.10
12907;DHT22;6521;50.498;8.474;2023-06-05T03:37:05;10.49;67.36
12907;DHT22;6521;50.498;8.474;2023-06-05T03:39:36;10.52;67.20
12907;DHT22;6521;50.498;8.474;2023-06-05T03:42:07;10.52;67.18
12907;DHT22;6521;50.498;8.474;2023-06-05T03:44:39;10.50;67.13
12907;DHT22;6521;50.498;8.474;2023-06-05T03:47:11;10.47;67.01
12907;DHT22;6521;50.498;8.474;2023-06-05T03:49:45;10.47;67.28
12907;DHT22;6521;50.498;8.474;2023-06-05T03:52:18;10.47;67.37
12907;DHT22;6521;50.498;8.474;2023-06-05T03:54:54;10.50;67.42
12907;DHT22;6521;50.498;8.474;2023-06-05T03:57:26;10.49;67.92
12907;DHT22;6521;50.498;8.474;2023-06-05T03:59:57;10.53;67.36
12907;DHT22;6521;50.498;8.474;2023-06-05T04:02:28;10.59;67.36
12907;DHT22;6521;50.498;8.474;2023-06-05T04:04:58;10.59;66.52
12907;DHT22;6521;50.498;8.474;2023-06-05T04:07:31;10.66;67.45
12907;DHT22;6521;50.498;8.474;2023-06-05T04:10:02;10.68;66.91
12907;DHT22;6521;50.498;8.474;2023-06-05T04:12:33;10.76;67.13
12907;DHT22;6521;50.498;8.474;2023-06-05T04:15:05;10.78;67.42
12907;DHT22;6521;50.498;8.474;2023-06-05T04:17:36;10.87;67.13
12907;DHT22;6521;50.498;8.474;2023-06-05T04:20:08;10.96;66.90
12907;DHT22;6521;50.498;8.474;2023-06-05T04:22:45;11.11;66.92
12907;DHT22;6521;50.498;8.474;2023-06-05T04:25:17;11.25;66.91
12907;DHT22;6521;50.498;8.474;2023-06-05T04:27:50;11.51;66.40
12907;DHT22;6521;50.498;8.474;2023-06-05T04:30:21;11.63;65.69
12907;DHT22;6521;50.498;8.474;2023-06-05T04:32:52;11.67;65.10
12907;DHT22;6521;50.498;8.474;2023-06-05T04:35:29;11.70;65.14
12907;DHT22;6521;50.498;8.474;2023-06-05T04:38:03;11.73;65.27
12907;DHT22;6521;50.498;8.474;2023-06-05T04:40:35;11.77;64.96
12907;DHT22;6521;50.498;8.474;2023-06-05T04:43:06;11.82;65.21
12907;DHT22;6521;50.498;8.474;2023-06-05T04:45:40;11.87;65.11
12907;DHT22;6521;50.498;8.474;2023-06-05T04:48:11;11.90;64.44
12907;DHT22;6521;50.498;8.474;2023-06-05T04:50:42;11.93;64.17
12907;DHT22;6521;50.498;8.474;2023-06-05T04:53:15;11.96;64.26
12907;DHT22;6521;50.498;8.474;2023-06-05T04:55:47;11.98;63.99
12907;DHT22;6521;50.498;8.474;2023-06-05T04:58:21;12.03;63.14
12907;DHT22;6521;50.498;8.474;2023-06-05T05:00:53;12.07;62.33
12907;DHT22;6521;50.498;8.474;2023-06-05T05:03:25;12.12;62.94
12907;DHT22;6521;50.498;8.474;2023-06-05T05:05:59;12.16;63.14
12907;DHT22;6521;50.498;8.474;2023-06-05T05:08:31;12.21;63.60
12907;DHT22;6521;50.498;8.474;2023-06-05T05:11:02;12.30;62.74
12907;DHT22;6521;50.498;8.474;2023-06-05T05:13:34;12.33;62.90
12907;DHT22;6521;50.498;8.474;2023-06-05T05:16:04;12.40;63.72
12907;DHT22;6521;50.498;8.474;2023-06-05T05:18:39;12.49;63.80
12907;DHT22;6521;50.498;8.474;2023-06-05T05:21:10;12.54;63.25
12907;DHT22;6521;50.498;8.474;2023-06-05T05:23:41;12.56;63.60
12907;DHT22;6521;50.498;8.474;2023-06-05T05:26:12;12.64;63.58
12907;DHT22;6521;50.498;8.474;2023-06-05T05:28:42;12.66;62.98
12907;DHT22;6521;50.498;8.474;2023-06-05T05:31:14;12.75;62.93
12907;DHT22;6521;50.498;8.474;2023-06-05T05:33:46;12.78;63.37
12907;DHT22;6521;50.498;8.474;2023-06-05T05:36:17;12.85;63.09
12907;DHT22;6521;50.498;8.474;2023-06-05T05:38:49;12.91;63.25
12907;DHT22;6521;50.498;8.474;2023-06-05T05:41:19;12.95;62.52
12907;DHT22;6521;50.498;8.474;2023-06-05T05:43:51;13.00;61.89
12907;DHT22;6521;50.498;8.474;2023-06-05T05:46:22;13.09;62.38
12907;DHT22;6521;50.498;8.474;2023-06-05T05:48:53;13.16;62.40
12907;DHT22;6521;50.498;8.474;2023-06-05T05:51:25;13.24;62.64
12907;DHT22;6521;50.498;8.474;2023-06-05T05:53:56;13.28;62.14
12907;DHT22;6521;50.498;8.474;2023-06-05T05:56:27;13.34;62.04
12907;DHT22;6521;50.498;8.474;2023-06-05T05:58:59;13.39;62.55
12907;DHT22;6521;50.498;8.474;2023-06-05T06:01:30;13.48;62.53
12907;DHT22;6521;50.498;8.474;2023-06-05T06:04:02;13.58;61.74
12907;DHT22;6521;50.498;8.474;2023-06-05T06:06:35;13.64;62.38
12907;DHT22;6521;50.498;8.474;2023-06-05T06:09:08;13.72;61.40
12907;DHT22;6521;50.498;8.474;2023-06-05T06:11:39;13.81;60.72
12907;DHT22;6521;50.498;8.474;2023-06-05T06:14:10;13.91;60.72
12907;DHT22;6521;50.498;8.474;2023-06-05T06:16:41;14.01;59.56
12907;DHT22;6521;50.498;8.474;2023-06-05T06:19:16;14.06;59.69
12907;DHT22;6521;50.498;8.474;2023-06-05T06:21:47;14.18;59.41
12907;DHT22;6521;50.498;8.474;2023-06-05T06:24:18;14.26;59.61
12907;DHT22;6521;50.498;8.474;2023-06-05T06:26:52;14.33;59.79
12907;DHT22;6521;50.498;8.474;2023-06-05T06:29:24;14.41;58.79
12907;DHT22;6521;50.498;8.474;2023-06-05T06:31:55;14.50;59.03
12907;DHT22;6521;50.498;8.474;2023-06-05T06:34:27;14.60;58.39
12907;DHT22;6521;50.498;8.474;2023-06-05T06:36:58;14.71;57.49
12907;DHT22;6521;50.498;8.474;2023-06-05T06:39:29;14.80;58.28
12907;DHT22;6521;50.498;8.474;2023-06-05T06:42:00;14.91;57.71
12907;DHT22;6521;50.498;8.474;2023-06-05T06:44:36;14.99;57.41
12907;DHT22;6521;50.498;8.474;2023-06-05T06:47:07;15.08;56.87
12907;DHT22;6521;50.498;8.474;2023-06-05T06:49:41;15.19;57.13
12907;DHT22;6521;50.498;8.474;2023-06-05T06:52:12;15.32;55.99
12907;DHT22;6521;50.498;8.474;2023-06-05T06:54:43;15.39;56.39
12907;DHT22;6521;50.498;8.474;2023-06-05T06:57:13;15.49;57.46
12907;DHT22;6521;50.498;8.474;2023-06-05T06:59:44;15.59;55.23
12907;DHT22;6521;50.498;8.474;2023-06-05T07:02:18;15.67;53.90
12907;DHT22;6521;50.498;8.474;2023-06-05T07:04:49;15.76;53.73
12907;DHT22;6521;50.498;8.474;2023-06-05T07:07:20;15.89;53.26
12907;DHT22;6521;50.498;8.474;2023-06-05T07:09:52;15.96;53.25
12907;DHT22;6521;50.498;8.474;2023-06-05T07:12:22;16.08;53.01
12907;DHT22;6521;50.498;8.474;2023-06-05T07:14:53;16.18;54.62
12907;DHT22;6521;50.498;8.474;2023-06-05T07:17:25;16.28;53.25
12907;DHT22;6521;50.498;8.474;2023-06-05T07:19:58;16.38;52.52
12907;DHT22;6521;50.498;8.474;2023-06-05T07:22:28;16.52;52.08
12907;DHT22;6521;50.498;8.474;2023-06-05T07:25:00;16.56;51.32
12907;DHT22;6521;50.498;8.474;2023-06-05T07:27:32;16.66;52.90
12907;DHT22;6521;50.498;8.474;2023-06-05T07:30:03;16.83;51.45
12907;DHT22;6521;50.498;8.474;2023-06-05T07:32:34;16.95;50.74
12907;DHT22;6521;50.498;8.474;2023-06-05T07:35:06;17.04;50.70
12907;DHT22;6521;50.498;8.474;2023-06-05T07:37:39;17.12;50.08
12907;DHT22;6521;50.498;8.474;2023-06-05T07:40:10;17.23;50.25
12907;DHT22;6521;50.498;8.474;2023-06-05T07:42:41;17.30;49.26
12907;DHT22;6521;50.498;8.474;2023-06-05T07:45:11;17.38;49.28
12907;DHT22;6521;50.498;8.474;2023-06-05T07:47:42;17.51;49.19
12907;DHT22;6521;50.498;8.474;2023-06-05T07:50:14;17.62;49.66
12907;DHT22;6521;50.498;8.474;2023-06-05T07:52:47;17.78;49.71
12907;DHT22;6521;50.498;8.474;2023-06-05T07:55:17;17.89;48.59
12907;DHT22;6521;50.498;8.474;2023-06-05T07:57:48;18.01;49.91
12907;DHT22;6521;50.498;8.474;2023-06-05T08:00:19;18.10;47.50
12907;DHT22;6521;50.498;8.474;2023-06-05T08:02:50;18.23;47.35
12907;DHT22;6521;50.498;8.474;2023-06-05T08:05:22;18.36;47.49
12907;DHT22;6521;50.498;8.474;2023-06-05T08:07:53;18.46;47.34
12907;DHT22;6521;50.498;8.474;2023-06-05T08:10:23;18.53;46.60
12907;DHT22;6521;50.498;8.474;2023-06-05T08:12:54;18.60;48.25
12907;DHT22;6521;50.498;8.474;2023-06-05T08:15:25;18.75;47.03
12907;DHT22;6521;50.498;8.474;2023-06-05T08:17:56;18.91;47.54
12907;DHT22;6521;50.498;8.474;2023-06-05T08:20:26;19.00;46.01
12907;DHT22;6521;50.498;8.474;2023-06-05T08:22:57;19.15;46.45
12907;DHT22;6521;50.498;8.474;2023-06-05T08:25:28;19.29;46.09
12907;DHT22;6521;50.498;8.474;2023-06-05T08:27:59;19.42;46.47
12907;DHT22;6521;50.498;8.474;2023-06-05T08:30:30;19.62;45.51
12907;DHT22;6521;50.498;8.474;2023-06-05T08:33:02;19.84;45.67
12907;DHT22;6521;50.498;8.474;2023-06-05T08:35:32;19.88;43.58
12907;DHT22;6521;50.498;8.474;2023-06-05T08:38:03;20.03;45.21
12907;DHT22;6521;50.498;8.474;2023-06-05T08:40:34;20.18;44.67
12907;DHT22;6521;50.498;8.474;2023-06-05T08:43:07;20.38;45.11
12907;DHT22;6521;50.498;8.474;2023-06-05T08:45:37;20.59;43.60
12907;DHT22;6521;50.498;8.474;2023-06-05T08:48:11;20.77;43.47
12907;DHT22;6521;50.498;8.474;2023-06-05T08:50:44;20.89;42.15
12907;DHT22;6521;50.498;8.474;2023-06-05T08:53:16;21.06;42.81
12907;DHT22;6521;50.498;8.474;2023-06-05T08:55:51;21.27;42.17
12907;DHT22;6521;50.498;8.474;2023-06-05T08:58:22;21.50;42.50
12907;DHT22;6521;50.498;8.474;2023-06-05T09:00:53;21.69;42.34
12907;DHT22;6521;50.498;8.474;2023-06-05T09:03:24;21.86;42.71
12907;DHT22;6521;50.498;8.474;2023-06-05T09:05:55;22.14;41.42
12907;DHT22;6521;50.498;8.474;2023-06-05T09:08:31;22.39;41.63
12907;DHT22;6521;50.498;8.474;2023-06-05T09:11:28;22.71;39.99
12907;DHT22;6521;50.498;8.474;2023-06-05T09:14:00;22.91;37.84
12907;DHT22;6521;50.498;8.474;2023-06-05T09:16:42;23.11;38.79
12907;DHT22;6521;50.498;8.474;2023-06-05T09:19:14;23.37;38.50
12907;DHT22;6521;50.498;8.474;2023-06-05T09:21:52;23.62;36.28
12907;DHT22;6521;50.498;8.474;2023-06-05T09:24:23;23.89;36.63
12907;DHT22;6521;50.498;8.474;2023-06-05T09:26:59;24.14;35.37
12907;DHT22;6521;50.498;8.474;2023-06-05T09:29:34;24.41;36.89
12907;DHT22;6521;50.498;8.474;2023-06-05T09:32:09;24.79;34.98
12907;DHT22;6521;50.498;8.474;2023-06-05T09:34:40;25.15;34.68
12907;DHT22;6521;50.498;8.474;2023-06-05T09:37:12;25.44;35.63
12907;DHT22;6521;50.498;8.474;2023-06-05T09:39:43;25.74;32.08
12907;DHT22;6521;50.498;8.474;2023-06-05T09:42:14;25.98;33.06
12907;DHT22;6521;50.498;8.474;2023-06-05T09:44:57;26.22;32.47
12907;DHT22;6521;50.498;8.474;2023-06-05T09:47:29;26.31;32.12
12907;DHT22;6521;50.498;8.474;2023-06-05T09:50:00;26.50;31.99
12907;DHT22;6521;50.498;8.474;2023-06-05T09:52:34;26.86;33.12
12907;DHT22;6521;50.498;8.474;2023-06-05T09:55:07;27.18;29.78
12907;DHT22;6521;50.498;8.474;2023-06-05T09:57:38;27.34;29.80
12907;DHT22;6521;50.498;8.474;2023-06-05T10:00:11;27.42;31.37
12907;DHT22;6521;50.498;8.474;2023-06-05T10:02:44;27.65;31.19
12907;DHT22;6521;50.498;8.474;2023-06-05T10:05:15;27.83;30.14
12907;DHT22;6521;50.498;8.474;2023-06-05T10:07:46;28.07;29.94
12907;DHT22;6521;50.498;8.474;2023-06-05T10:10:22;28.29;28.43
12907;DHT22;6521;50.498;8.474;2023-06-05T10:12:54;28.61;28.72
12907;DHT22;6521;50.498;8.474;2023-06-05T10:15:27;28.54;28.26
12907;DHT22;6521;50.498;8.474;2023-06-05T10:17:59;28.79;27.87
12907;DHT22;6521;50.498;8.474;2023-06-05T10:20:32;28.85;28.40
12907;DHT22;6521;50.498;8.474;2023-06-05T10:23:05;29.10;27.86
12907;DHT22;6521;50.498;8.474;2023-06-05T10:25:36;29.23;28.49
12907;DHT22;6521;50.498;8.474;2023-06-05T10:28:16;29.33;28.19
12907;DHT22;6521;50.498;8.474;2023-06-05T10:36:43;29.82;25.28
12907;DHT22;6521;50.498;8.474;2023-06-05T10:39:19;29.92;24.85
12907;DHT22;6521;50.498;8.474;2023-06-05T10:41:50;29.98;26.07
12907;DHT22;6521;50.498;8.474;2023-06-05T10:44:38;30.33;25.63
12907;DHT22;6521;50.498;8.474;2023-06-05T10:52:49;30.16;23.28
12907;DHT22;6521;50.498;8.474;2023-06-05T10:55:21;29.97;23.34
12907;DHT22;6521;50.498;8.474;2023-06-05T10:58:03;29.89;24.14
12907;DHT22;6521;50.498;8.474;2023-06-05T11:00:34;29.89;23.87
12907;DHT22;6521;50.498;8.474;2023-06-05T11:03:06;29.91;23.34
12907;DHT22;6521;50.498;8.474;2023-06-05T11:05:37;30.08;24.74
12907;DHT22;6521;50.498;8.474;2023-06-05T11:08:27;30.29;23.46
12907;DHT22;6521;50.498;8.474;2023-06-05T11:11:06;30.22;23.92
12907;DHT22;6521;50.498;8.474;2023-06-05T11:13:55;30.19;24.67
12907;DHT22;6521;50.498;8.474;2023-06-05T11:16:31;30.37;22.40
12907;DHT22;6521;50.498;8.474;2023-06-05T11:22:08;30.55;23.01
12907;DHT22;6521;50.498;8.474;2023-06-05T11:24:39;30.59;22.51
12907;DHT22;6521;50.498;8.474;2023-06-05T11:27:43;30.71;23.68
12907;DHT22;6521;50.498;8.474;2023-06-05T11:30:21;30.94;23.34
12907;DHT22;6521;50.498;8.474;2023-06-05T11:32:52;31.06;22.39
12907;DHT22;6521;50.498;8.474;2023-06-05T11:35:25;31.07;23.07
12907;DHT22;6521;50.498;8.474;2023-06-05T11:38:09;30.83;23.69
12907;DHT22;6521;50.498;8.474;2023-06-05T11:40:42;30.74;22.51
12907;DHT22;6521;50.498;8.474;2023-06-05T11:43:14;30.90;23.73
12907;DHT22;6521;50.498;8.474;2023-06-05T11:45:53;31.02;23.49
12907;DHT22;6521;50.498;8.474;2023-06-05T11:48:25;31.07;22.41
12907;DHT22;6521;50.498;8.474;2023-06-05T11:51:03;31.08;23.30
12907;DHT22;6521;50.498;8.474;2023-06-05T11:53:34;31.21;22.76
12907;DHT22;6521;50.498;8.474;2023-06-05T11:56:14;31.06;21.44
12907;DHT22;6521;50.498;8.474;2023-06-05T11:58:48;31.31;22.08
12907;DHT22;6521;50.498;8.474;2023-06-05T12:01:20;31.35;22.41
12907;DHT22;6521;50.498;8.474;2023-06-05T12:04:05;31.32;21.90
12907;DHT22;6521;50.498;8.474;2023-06-05T12:06:44;31.29;21.73
12907;DHT22;6521;50.498;8.474;2023-06-05T12:09:17;30.94;22.34
12907;DHT22;6521;50.498;8.474;2023-06-05T12:11:48;30.86;22.52
12907;DHT22;6521;50.498;8.474;2023-06-05T12:14:30;30.81;21.02
12907;DHT22;6521;50.498;8.474;2023-06-05T12:17:09;31.37;21.14
12907;DHT22;6521;50.498;8.474;2023-06-05T12:19:40;31.39;20.93
12907;DHT22;6521;50.498;8.474;2023-06-05T12:22:11;31.28;21.97
12907;DHT22;6521;50.498;8.474;2023-06-05T12:24:42;31.55;22.56
12907;DHT22;6521;50.498;8.474;2023-06-05T12:27:13;31.28;22.04
12907;DHT22;6521;50.498;8.474;2023-06-05T12:29:52;31.21;22.65
12907;DHT22;6521;50.498;8.474;2023-06-05T12:32:25;31.22;22.54
12907;DHT22;6521;50.498;8.474;2023-06-05T12:34:56;31.15;22.44
12907;DHT22;6521;50.498;8.474;2023-06-05T12:37:28;30.90;23.28
12907;DHT22;6521;50.498;8.474;2023-06-05T12:40:02;30.94;21.70
12907;DHT22;6521;50.498;8.474;2023-06-05T12:42:40;30.95;22.40
12907;DHT22;6521;50.498;8.474;2023-06-05T12:45:14;30.76;22.58
12907;DHT22;6521;50.498;8.474;2023-06-05T12:47:45;30.86;22.66
12907;DHT22;6521;50.498;8.474;2023-06-05T12:50:16;31.00;22.32
12907;DHT22;6521;50.498;8.474;2023-06-05T12:52:47;30.87;22.87
12907;DHT22;6521;50.498;8.474;2023-06-05T12:55:18;30.42;23.32
12907;DHT22;6521;50.498;8.474;2023-06-05T12:57:49;30.21;23.34
12907;DHT22;6521;50.498;8.474;2023-06-05T13:00:20;30.31;23.17
12907;DHT22;6521;50.498;8.474;2023-06-05T13:02:51;30.56;21.85
12907;DHT22;6521;50.498;8.474;2023-06-05T13:05:22;30.56;23.51
12907;DHT22;6521;50.498;8.474;2023-06-05T13:07:53;30.53;23.59
12907;DHT22;6521;50.498;8.474;2023-06-05T13:10:25;30.71;22.76
12907;DHT22;6521;50.498;8.474;2023-06-05T13:12:56;30.44;24.04
12907;DHT22;6521;50.498;8.474;2023-06-05T13:15:27;30.49;23.21
12907;DHT22;6521;50.498;8.474;2023-06-05T13:17:57;30.09;22.91
12907;DHT22;6521;50.498;8.474;2023-06-05T13:20:28;29.92;23.35
12907;DHT22;6521;50.498;8.474;2023-06-05T13:22:59;30.02;23.50
12907;DHT22;6521;50.498;8.474;2023-06-05T13:25:30;30.00;23.22
12907;DHT22;6521;50.498;8.474;2023-06-05T13:28:01;30.26;22.82
12907;DHT22;6521;50.498;8.474;2023-06-05T13:30:32;30.50;23.07
12907;DHT22;6521;50.498;8.474;2023-06-05T13:33:02;30.55;22.54
12907;DHT22;6521;50.498;8.474;2023-06-05T13:35:33;30.74;23.00
12907;DHT22;6521;50.498;8.474;2023-06-05T13:38:04;30.69;23.35
12907;DHT22;6521;50.498;8.474;2023-06-05T13:40:35;30.76;21.59
12907;DHT22;6521;50.498;8.474;2023-06-05T13:43:06;30.87;20.93
12907;DHT22;6521;50.498;8.474;2023-06-05T13:45:37;30.88;22.14
12907;DHT22;6521;50.498;8.474;2023-06-05T13:48:08;31.01;21.28
12907;DHT22;6521;50.498;8.474;2023-06-05T13:50:39;30.88;21.42
12907;DHT22;6521;50.498;8.474;2023-06-05T13:53:09;30.81;21.65
12907;DHT22;6521;50.498;8.474;2023-06-05T13:55:40;30.86;22.66
12907;DHT22;6521;50.498;8.474;2023-06-05T13:58:12;31.00;22.87
12907;DHT22;6521;50.498;8.474;2023-06-05T14:00:43;30.70;20.76
12907;DHT22;6521;50.498;8.474;2023-06-05T14:03:14;30.64;21.30
12907;DHT22;6521;50.498;8.474;2023-06-05T14:05:45;30.62;22.50
12907;DHT22;6521;50.498;8.474;2023-06-05T14:08:15;30.08;22.77
12907;DHT22;6521;50.498;8.474;2023-06-05T14:10:46;30.05;22.16
12907;DHT22;6521;50.498;8.474;2023-06-05T14:13:17;30.22;22.16
12907;DHT22;6521;50.498;8.474;2023-06-05T14:15:48;30.22;21.73
12907;DHT22;6521;50.498;8.474;2023-06-05T14:18:19;30.25;22.39
12907;DHT22;6521;50.498;8.474;2023-06-05T14:20:51;30.18;22.34
12907;DHT22;6521;50.498;8.474;2023-06-05T14:23:22;30.28;21.68
12907;DHT22;6521;50.498;8.474;2023-06-05T14:25:54;30.28;21.90
12907;DHT22;6521;50.498;8.474;2023-06-05T14:28:24;29.89;24.50
12907;DHT22;6521;50.498;8.474;2023-06-05T14:30:56;29.65;22.46
12907;DHT22;6521;50.498;8.474;2023-06-05T14:33:26;29.43;22.78
12907;DHT22;6521;50.498;8.474;2023-06-05T14:35:57;29.50;23.79
12907;DHT22;6521;50.498;8.474;2023-06-05T14:38:29;29.50;22.88
12907;DHT22;6521;50.498;8.474;2023-06-05T14:41:00;29.55;23.49
12907;DHT22;6521;50.498;8.474;2023-06-05T14:43:31;29.64;22.89
12907;DHT22;6521;50.498;8.474;2023-06-05T14:46:01;29.74;22.67
12907;DHT22;6521;50.498;8.474;2023-06-05T14:48:32;29.94;24.39
12907;DHT22;6521;50.498;8.474;2023-06-05T14:51:03;29.68;23.02
12907;DHT22;6521;50.498;8.474;2023-06-05T14:53:34;29.61;23.68
12907;DHT22;6521;50.498;8.474;2023-06-05T14:56:05;29.53;23.20
12907;DHT22;6521;50.498;8.474;2023-06-05T14:58:36;29.43;23.51
12907;DHT22;6521;50.498;8.474;2023-06-05T15:01:07;29.37;22.69
12907;DHT22;6521;50.498;8.474;2023-06-05T15:03:37;29.19;23.66
12907;DHT22;6521;50.498;8.474;2023-06-05T15:06:08;29.12;23.21
12907;DHT22;6521;50.498;8.474;2023-06-05T15:08:40;29.17;23.34
12907;DHT22;6521;50.498;8.474;2023-06-05T15:11:10;29.09;23.72
12907;DHT22;6521;50.498;8.474;2023-06-05T15:13:41;28.99;24.00
12907;DHT22;6521;50.498;8.474;2023-06-05T15:16:12;28.85;22.67
12907;DHT22;6521;50.498;8.474;2023-06-05T15:18:43;28.58;22.89
12907;DHT22;6521;50.498;8.474;2023-06-05T15:21:14;28.59;22.92
12907;DHT22;6521;50.498;8.474;2023-06-05T15:23:44;28.54;23.30
12907;DHT22;6521;50.498;8.474;2023-06-05T15:26:15;28.45;23.06
12907;DHT22;6521;50.498;8.474;2023-06-05T15:28:46;28.14;24.03
12907;DHT22;6521;50.498;8.474;2023-06-05T15:31:18;28.14;23.62
12907;DHT22;6521;50.498;8.474;2023-06-05T15:33:48;28.07;24.18
12907;DHT22;6521;50.498;8.474;2023-06-05T15:36:19;27.85;24.20
12907;DHT22;6521;50.498;8.474;2023-06-05T15:38:50;27.77;25.47
12907;DHT22;6521;50.498;8.474;2023-06-05T15:41:23;27.56;26.16
12907;DHT22;6521;50.498;8.474;2023-06-05T15:43:54;27.35;24.72
12907;DHT22;6521;50.498;8.474;2023-06-05T15:46:25;27.45;26.11
12907;DHT22;6521;50.498;8.474;2023-06-05T15:48:56;27.43;25.46
12907;DHT22;6521;50.498;8.474;2023-06-05T15:51:26;27.31;26.01
12907;DHT22;6521;50.498;8.474;2023-06-05T15:53:58;27.14;26.87
12907;DHT22;6521;50.498;8.474;2023-06-05T15:56:29;27.00;26.01
12907;DHT22;6521;50.498;8.474;2023-06-05T15:58:59;26.95;26.80
12907;DHT22;6521;50.498;8.474;2023-06-05T16:01:30;26.91;27.11
12907;DHT22;6521;50.498;8.474;2023-06-05T16:04:01;26.88;26.77
12907;DHT22;6521;50.498;8.474;2023-06-05T16:06:32;26.76;25.97
12907;DHT22;6521;50.498;8.474;2023-06-05T16:09:03;26.63;26.53
12907;DHT22;6521;50.498;8.474;2023-06-05T16:11:34;26.43;27.18
12907;DHT22;6521;50.498;8.474;2023-06-05T16:14:05;26.26;26.91
12907;DHT22;6521;50.498;8.474;2023-06-05T16:16:36;26.16;27.70
12907;DHT22;6521;50.498;8.474;2023-06-05T16:19:07;26.05;26.73
12907;DHT22;6521;50.498;8.474;2023-06-05T16:21:38;25.89;26.46
12907;DHT22;6521;50.498;8.474;2023-06-05T16:24:08;25.89;26.85
12907;DHT22;6521;50.498;8.474;2023-06-05T16:26:40;25.84;27.20
12907;DHT22;6521;50.498;8.474;2023-06-05T16:29:11;25.74;27.24
12907;DHT22;6521;50.498;8.474;2023-06-05T16:31:42;25.67;27.72
12907;DHT22;6521;50.498;8.474;2023-06-05T16:34:13;25.70;27.52
12907;DHT22;6521;50.498;8.474;2023-06-05T16:36:44;25.65;28.99